createdAt,value
2018-11-22T12:17:32.304Z,76.10
2018-11-22T12:20:00.873Z,76.00
2018-11-22T12:22:29.429Z,76.30
2018-11-22T12:24:57.982Z,76.50
2018-11-22T12:27:26.535Z,76.40
2018-11-22T12:29:55.105Z,76.30
2018-11-22T12:32:29.000Z,76.40
2018-11-22T12:34:59.909Z,76.50
2018-11-22T12:37:35.121Z,76.80
2018-11-22T12:40:05.621Z,77.00
2018-11-22T12:42:34.152Z,76.90
2018-11-22T12:45:03.805Z,76.50
2018-11-22T12:47:33.336Z,76.20
2018-11-22T12:50:02.456Z,76.00
2018-11-22T12:52:31.009Z,75.60
2018-11-22T12:54:59.587Z,75.30
2018-11-22T12:57:28.133Z,75.30
2018-11-22T12:59:56.684Z,75.30
2018-11-22T13:02:25.239Z,74.90
2018-11-22T13:04:53.989Z,74.70
2018-11-22T13:07:22.549Z,75.00
2018-11-22T13:09:51.110Z,74.90
2018-11-22T13:12:19.671Z,74.80
2018-11-22T13:14:48.245Z,74.80
2018-11-22T13:17:16.805Z,74.80
2018-11-22T13:19:45.369Z,75.10
2018-11-22T13:22:13.904Z,75.40
2018-11-22T13:24:42.441Z,75.40
2018-11-22T13:27:10.983Z,75.10
2018-11-22T13:29:39.519Z,74.80
2018-11-22T13:32:08.106Z,74.70
2018-11-22T13:34:36.617Z,75.10
2018-11-22T13:37:05.285Z,75.20
2018-11-22T13:39:33.821Z,75.50
2018-11-22T13:42:02.389Z,76.10
2018-11-22T13:44:30.921Z,76.80
2018-11-22T13:46:59.512Z,77.30
2018-11-22T13:49:28.080Z,77.90
2018-11-22T13:51:56.629Z,78.20
2018-11-22T13:54:25.181Z,78.60
2018-11-22T13:56:54.493Z,78.60
2018-11-22T13:59:23.064Z,78.50
2018-11-22T14:01:51.617Z,78.40
2018-11-22T14:04:20.177Z,78.40
2018-11-22T14:06:48.729Z,78.60
2018-11-22T14:09:17.282Z,78.40
2018-11-22T14:11:45.849Z,78.20
2018-11-22T14:14:14.404Z,78.30
2018-11-22T14:16:42.965Z,78.20
2018-11-22T14:19:11.497Z,77.90
2018-11-22T14:21:40.057Z,77.80
2018-11-22T14:24:08.582Z,77.50
2018-11-22T14:26:37.141Z,77.10
2018-11-22T14:29:05.816Z,76.90
2018-11-22T14:31:34.388Z,76.80
2018-11-22T14:34:02.960Z,76.60
2018-11-22T14:36:32.388Z,76.50
2018-11-22T14:39:00.929Z,76.50
2018-11-22T14:41:29.448Z,76.50
2018-11-22T14:43:57.996Z,76.60
2018-11-22T14:46:26.536Z,76.50
2018-11-22T14:48:55.096Z,76.70
2018-11-22T14:51:27.636Z,76.90
2018-11-22T14:53:56.253Z,77.10
2018-11-22T14:56:24.809Z,77.20
2018-11-22T14:58:53.373Z,77.10
2018-11-22T15:01:21.912Z,77.10
2018-11-22T15:03:50.440Z,77.20
2018-11-22T15:06:18.977Z,77.40
2018-11-22T15:08:47.542Z,77.70
2018-11-22T15:11:16.104Z,77.90
2018-11-22T15:13:44.633Z,78.10
2018-11-22T15:16:13.194Z,78.40
2018-11-22T15:18:41.750Z,78.50
2018-11-22T15:21:10.286Z,78.70
2018-11-22T15:23:38.839Z,79.00
2018-11-22T15:26:07.382Z,79.30
2018-11-22T15:28:35.912Z,79.50
2018-11-22T15:31:04.673Z,79.80
2018-11-22T15:33:33.197Z,80.10
2018-11-22T15:36:01.770Z,80.20
2018-11-22T15:38:30.329Z,80.30
2018-11-22T15:40:58.889Z,80.20
2018-11-22T15:43:27.433Z,80.30
2018-11-22T15:45:55.967Z,80.30
2018-11-22T15:48:24.525Z,80.40
2018-11-22T15:50:53.080Z,80.60
2018-11-22T15:53:21.647Z,80.70
2018-11-22T15:55:50.203Z,80.80
2018-11-22T15:58:18.801Z,80.80
2018-11-22T16:00:47.359Z,80.90
2018-11-22T16:03:15.893Z,81.00
2018-11-22T16:05:44.457Z,81.30
2018-11-22T16:08:13.006Z,81.50
2018-11-22T16:10:41.553Z,81.80
2018-11-22T16:13:11.261Z,82.10
2018-11-22T16:15:42.913Z,82.40
2018-11-22T16:18:11.486Z,82.70
2018-11-22T16:20:40.047Z,83.00
2018-11-22T16:23:08.596Z,83.20
2018-11-22T16:25:37.140Z,83.30
2018-11-22T16:28:06.141Z,83.40
2018-11-22T16:30:35.048Z,83.50
2018-11-22T16:33:03.637Z,83.50
2018-11-22T16:35:33.590Z,83.50
2018-11-22T16:38:01.497Z,83.60
2018-11-22T16:40:30.337Z,84.00
2018-11-22T16:43:00.401Z,84.10
2018-11-22T16:45:30.163Z,84.10
2018-11-22T16:47:59.813Z,84.40
2018-11-22T16:50:29.472Z,84.80
2018-11-22T16:52:58.056Z,84.90
2018-11-22T16:55:27.212Z,84.90
2018-11-22T16:57:56.729Z,85.10
2018-11-22T17:00:27.052Z,85.20
2018-11-22T17:02:58.064Z,85.40
2018-11-22T17:05:26.705Z,85.70
2018-11-22T17:07:55.277Z,85.60
2018-11-22T17:10:24.968Z,85.40
2018-11-22T17:12:54.805Z,85.30
2018-11-22T17:15:24.712Z,85.20
2018-11-22T17:17:53.664Z,85.20
2018-11-22T17:20:22.904Z,85.00
2018-11-22T17:22:52.142Z,85.00
2018-11-22T17:25:21.989Z,85.40
2018-11-22T17:27:51.894Z,85.60
2018-11-22T17:30:22.846Z,85.70
2018-11-22T17:32:51.397Z,85.80
2018-11-22T17:35:21.464Z,85.90
2018-11-22T17:37:50.289Z,85.60
2018-11-22T17:40:24.608Z,85.50
2018-11-22T17:42:53.320Z,85.40
2018-11-22T17:45:25.220Z,85.40
2018-11-22T17:47:54.014Z,85.40
2018-11-22T17:50:24.049Z,85.40
2018-11-22T17:52:52.586Z,85.60
2018-11-22T17:55:23.408Z,85.70
2018-11-22T17:57:51.989Z,85.70
2018-11-22T18:00:38.477Z,85.70
2018-11-22T18:03:07.482Z,85.50
2018-11-22T18:05:36.201Z,85.10
2018-11-22T18:08:05.010Z,84.60
2018-11-22T18:10:34.925Z,84.20
2018-11-22T18:13:03.547Z,84.00
2018-11-22T18:15:34.701Z,84.10
2018-11-22T18:18:03.245Z,84.00
2018-11-22T18:20:32.392Z,84.00
2018-11-22T18:23:01.698Z,83.80
2018-11-22T18:25:31.480Z,83.70
2018-11-22T18:28:00.239Z,84.00
2018-11-22T18:30:30.089Z,83.90
2018-11-22T18:33:01.398Z,84.30
2018-11-22T18:35:29.965Z,83.60
2018-11-22T18:37:58.530Z,83.60
2018-11-22T18:40:28.478Z,83.40
2018-11-22T18:42:58.089Z,83.60
2018-11-22T18:45:31.248Z,84.00
2018-11-22T18:48:00.648Z,83.90
2018-11-22T18:50:36.212Z,83.60
2018-11-22T18:53:04.906Z,83.60
2018-11-22T18:55:33.477Z,83.60
2018-11-22T18:58:02.137Z,83.50
2018-11-22T19:00:32.722Z,83.60
2018-11-22T19:03:02.753Z,83.80
2018-11-22T19:05:31.323Z,83.80
2018-11-22T19:08:00.333Z,83.90
2018-11-22T19:10:30.236Z,83.90
2018-11-22T19:13:00.232Z,83.90
2018-11-22T19:15:30.004Z,84.10
2018-11-22T19:17:58.668Z,84.30
2018-11-22T19:20:29.492Z,84.30
2018-11-22T19:22:58.877Z,84.30
2018-11-22T19:25:27.435Z,84.50
2018-11-22T19:27:57.276Z,84.40
2018-11-22T19:30:27.969Z,84.30
2018-11-22T19:32:57.851Z,84.50
2018-11-22T19:35:27.821Z,84.90
2018-11-22T19:37:56.392Z,85.20
2018-11-22T19:40:27.251Z,85.40
2018-11-22T19:42:56.908Z,85.50
2018-11-22T19:45:26.969Z,85.30
2018-11-22T19:47:55.542Z,85.20
2018-11-22T19:50:25.252Z,85.20
2018-11-22T19:52:54.444Z,85.20
2018-11-22T19:55:24.497Z,85.20
2018-11-22T19:57:55.251Z,85.40
2018-11-22T20:00:24.649Z,85.40
2018-11-22T20:02:54.048Z,85.40
2018-11-22T20:05:23.654Z,85.50
2018-11-22T20:07:53.807Z,85.70
2018-11-22T20:10:27.782Z,85.80
2018-11-22T20:12:56.585Z,85.80
2018-11-22T20:15:25.195Z,85.80
2018-11-22T20:17:54.062Z,86.00
2018-11-22T20:20:23.221Z,86.30
2018-11-22T20:22:52.045Z,86.40
2018-11-22T20:25:20.650Z,86.70
2018-11-22T20:27:49.969Z,87.20
2018-11-22T20:30:20.925Z,87.50
2018-11-22T20:32:49.862Z,87.80
2018-11-22T20:35:18.981Z,87.80
2018-11-22T20:37:48.296Z,87.60
2018-11-22T20:40:19.118Z,87.60
2018-11-22T20:42:47.757Z,87.60
2018-11-22T20:45:17.649Z,87.70
2018-11-22T20:47:47.250Z,87.80
2018-11-22T20:50:18.157Z,88.00
2018-11-22T20:52:46.753Z,88.30
2018-11-22T20:55:18.539Z,88.30
2018-11-22T20:57:48.462Z,88.20
2018-11-22T21:00:19.280Z,88.00
2018-11-22T21:02:47.884Z,88.00
2018-11-22T21:05:17.198Z,88.00
2018-11-22T21:07:45.982Z,88.10
2018-11-22T21:10:16.977Z,88.10
2018-11-22T21:12:45.540Z,88.30
2018-11-22T21:15:17.251Z,88.60
2018-11-22T21:17:46.586Z,88.90
2018-11-22T21:20:16.332Z,89.20
2018-11-22T21:22:44.899Z,89.20
2018-11-22T21:25:14.686Z,89.10
2018-11-22T21:27:43.292Z,88.90
2018-11-22T21:30:15.764Z,88.70
2018-11-22T21:32:45.176Z,88.90
2018-11-22T21:35:14.252Z,89.10
2018-11-22T21:37:43.160Z,89.20
2018-11-22T21:40:12.379Z,89.10
2018-11-22T21:42:40.916Z,89.10
2018-11-22T21:45:13.169Z,89.20
2018-11-22T21:47:42.288Z,89.40
2018-11-22T21:50:12.149Z,89.30
2018-11-22T21:52:40.730Z,89.30
2018-11-22T21:55:11.713Z,89.30
2018-11-22T21:57:41.237Z,89.10
2018-11-22T22:00:15.284Z,89.10
2018-11-22T22:02:43.898Z,89.00
2018-11-22T22:05:12.513Z,88.90
2018-11-22T22:07:41.132Z,89.00
2018-11-22T22:10:09.763Z,89.20
2018-11-22T22:12:38.605Z,89.60
2018-11-22T22:15:11.605Z,90.00
2018-11-22T22:17:40.841Z,90.10
2018-11-22T22:20:11.869Z,90.20
2018-11-22T22:22:41.133Z,90.40
2018-11-22T22:25:11.781Z,90.50
2018-11-22T22:27:40.877Z,90.60
2018-11-22T22:30:12.492Z,90.60
2018-11-22T22:32:41.205Z,90.70
2018-11-22T22:35:10.074Z,90.70
2018-11-22T22:37:39.172Z,90.60
2018-11-22T22:40:11.326Z,90.40
2018-11-22T22:42:40.787Z,90.40
2018-11-22T22:45:09.589Z,90.20
2018-11-22T22:47:38.141Z,90.10
2018-11-22T22:50:09.125Z,89.90
2018-11-22T22:52:37.700Z,89.60
2018-11-22T22:55:06.929Z,89.40
2018-11-22T22:57:35.497Z,89.30
2018-11-22T23:00:04.690Z,89.40
2018-11-22T23:02:33.240Z,89.50
2018-11-22T23:05:01.794Z,89.70
2018-11-22T23:07:30.364Z,89.80
2018-11-22T23:09:58.925Z,90.00
2018-11-22T23:12:27.493Z,90.30
2018-11-22T23:14:56.053Z,90.40
2018-11-22T23:17:24.602Z,90.40
2018-11-22T23:19:53.131Z,90.40
2018-11-22T23:22:21.716Z,90.40
2018-11-22T23:24:50.280Z,90.40
2018-11-22T23:27:18.806Z,90.30
2018-11-22T23:29:47.337Z,90.10
2018-11-22T23:32:15.884Z,90.00
2018-11-22T23:34:44.442Z,89.60
2018-11-22T23:37:12.997Z,89.50
2018-11-22T23:39:41.574Z,89.30
2018-11-22T23:42:10.117Z,89.10
2018-11-22T23:44:38.649Z,88.90
2018-11-22T23:47:07.201Z,88.90
2018-11-22T23:49:35.730Z,88.80
2018-11-22T23:52:04.283Z,88.70
2018-11-22T23:54:32.813Z,88.70
2018-11-22T23:57:01.405Z,88.70
2018-11-22T23:59:29.945Z,88.50
